Time;durP1;ratioP1;P1;durP2;ratioP2;P2;SDS_P1;SDS_P2;PMS_P1;PMS_P2;Temp;Humidity;BMP_temperature;BMP_pressure;BME280_temperature;BME280_humidity;BME280_pressure;Samples;Min_cycle;Max_cycle;Signal;HPM_P1;HPM_P2
2022/10/24 00:01:41;;;;;;;11.75;7.22;;;19.10;1.00;;;;;;5116579;28;20330;-29
2022/10/24 00:04:08;;;;;;;11.15;7.95;;;19.10;1.00;;;;;;5116552;28;20248;-30
2022/10/24 00:06:35;;;;;;;10.23;7.63;;;19.10;1.00;;;;;;5116549;27;20222;-31
2022/10/24 00:09:02;;;;;;;9.38;7.88;;;19.10;1.00;;;;;;5116720;27;20183;-31
2022/10/24 00:11:30;;;;;;;10.82;7.53;;;19.10;1.00;;;;;;5116385;28;20282;-30
2022/10/24 00:13:58;;;;;;;10.02;7.88;;;19.10;1.00;;;;;;5115964;28;20647;-33
2022/10/24 00:16:25;;;;;;;12.30;7.85;;;19.00;1.00;;;;;;5129991;27;20206;-32
2022/10/24 00:18:52;;;;;;;9.95;7.82;;;19.10;1.00;;;;;;5136718;27;20187;-30
2022/10/24 00:21:20;;;;;;;11.23;7.60;;;19.10;1.00;;;;;;5136429;27;20194;-32
2022/10/24 00:23:47;;;;;;;9.57;7.80;;;19.10;1.00;;;;;;5136115;27;20182;-32
2022/10/24 00:26:15;;;;;;;10.07;7.68;;;19.10;1.00;;;;;;5136330;27;20192;-32
2022/10/24 00:28:44;;;;;;;12.50;7.57;;;19.10;1.00;;;;;;5136558;27;20221;-32
2022/10/24 00:31:15;;;;;;;9.43;7.65;;;19.10;1.00;;;;;;5136535;27;20186;-30
2022/10/24 00:33:42;;;;;;;12.07;7.63;;;19.10;1.00;;;;;;5136620;27;20171;-29
2022/10/24 00:36:11;;;;;;;10.05;7.93;;;19.00;1.00;;;;;;5136069;27;20606;-31
2022/10/24 00:38:38;;;;;;;9.77;7.60;;;19.00;1.00;;;;;;5136040;27;20235;-32
2022/10/24 00:41:06;;;;;;;9.77;7.40;;;19.10;1.00;;;;;;5136690;27;20190;-29
2022/10/24 00:43:33;;;;;;;9.82;7.53;;;19.00;1.00;;;;;;5135976;27;20703;-31
2022/10/24 00:46:03;;;;;;;9.45;8.23;;;19.00;1.00;;;;;;5135915;27;20220;-29
2022/10/24 00:48:35;;;;;;;9.63;7.18;;;19.00;1.00;;;;;;5121273;27;20195;-31
2022/10/24 00:51:08;;;;;;;8.90;7.55;;;19.00;1.00;;;;;;5115274;28;20581;-33
2022/10/24 00:53:41;;;;;;;9.23;7.05;;;19.00;1.00;;;;;;5115889;28;20179;-32
2022/10/24 00:56:09;;;;;;;11.48;7.25;;;19.00;1.00;;;;;;5114456;28;20247;-31
2022/10/24 00:58:37;;;;;;;10.35;7.68;;;19.00;1.00;;;;;;5115300;28;20582;-30
2022/10/24 01:01:07;;;;;;;11.32;7.10;;;19.00;1.00;;;;;;5115591;28;20247;-30
2022/10/24 01:03:35;;;;;;;9.60;6.78;;;19.00;1.00;;;;;;5115440;28;20530;-32
2022/10/24 01:06:18;;;;;;;12.85;7.43;;;19.00;1.00;;;;;;5114974;28;20244;-32
2022/10/24 01:08:49;;;;;;;9.07;6.90;;;18.90;1.00;;;;;;5115332;28;20175;-30
2022/10/24 01:11:28;;;;;;;8.18;7.05;;;18.90;1.00;;;;;;5114936;28;20224;-33
2022/10/24 01:14:02;;;;;;;10.70;7.63;;;18.90;1.00;;;;;;5114915;28;20532;-32
2022/10/24 01:16:41;;;;;;;8.73;6.88;;;18.90;1.00;;;;;;5115001;28;20206;-32
2022/10/24 01:19:27;;;;;;;11.43;8.07;;;18.90;1.00;;;;;;5117619;27;20238;-30
2022/10/24 01:21:59;;;;;;;8.80;6.65;;;18.90;1.00;;;;;;5135274;27;20174;-31
2022/10/24 01:24:47;;;;;;;10.15;6.90;;;18.90;1.00;;;;;;5135579;27;20580;-33
2022/10/24 01:27:49;;;;;;;9.50;6.65;;;18.90;1.00;;;;;;5135468;27;20186;-31
2022/10/24 01:30:18;;;;;;;9.00;6.97;;;18.90;1.00;;;;;;5135000;27;20694;-31
2022/10/24 01:32:53;;;;;;;9.73;7.00;;;18.80;1.00;;;;;;5133234;27;20191;-35
2022/10/24 01:35:34;;;;;;;9.32;6.70;;;18.90;99.90;;;;;;5135299;27;20170;-30
2022/10/24 01:38:07;;;;;;;8.40;6.70;;;18.90;99.90;;;;;;5134918;27;20185;-30
2022/10/24 01:40:40;;;;;;;9.63;7.00;;;18.80;99.90;;;;;;5135598;27;20179;-33
2022/10/24 01:43:11;;;;;;;9.70;6.75;;;18.80;99.90;;;;;;5135030;27;20171;-30
2022/10/24 01:45:43;;;;;;;8.20;6.65;;;18.80;99.90;;;;;;5135103;27;20258;-31
2022/10/24 01:48:15;;;;;;;9.70;6.65;;;18.80;99.90;;;;;;5134809;27;20178;-30
2022/10/24 01:50:45;;;;;;;9.23;6.57;;;18.80;99.90;;;;;;5135031;27;20239;-29
2022/10/24 01:53:14;;;;;;;8.80;6.70;;;18.80;99.90;;;;;;5114469;27;20577;-31
2022/10/24 01:55:42;;;;;;;9.80;6.50;;;18.80;99.90;;;;;;5113916;28;20235;-32
2022/10/24 01:58:09;;;;;;;10.07;6.55;;;18.80;99.90;;;;;;5114559;28;20187;-32
2022/10/24 02:00:36;;;;;;;9.45;6.47;;;18.80;99.90;;;;;;5114444;28;20587;-32
2022/10/24 02:03:11;;;;;;;8.13;6.55;;;18.80;99.90;;;;;;5114214;28;20247;-31
2022/10/24 02:05:43;;;;;;;7.72;6.00;;;18.80;99.90;;;;;;5114495;28;20174;-32
2022/10/24 02:08:14;;;;;;;7.97;6.28;;;18.70;99.90;;;;;;5113316;28;20538;-31
2022/10/24 02:10:46;;;;;;;8.80;6.32;;;18.80;99.90;;;;;;5113793;28;20619;-32
2022/10/24 02:13:18;;;;;;;7.95;6.45;;;18.70;99.90;;;;;;5114076;28;20251;-33
2022/10/24 02:15:49;;;;;;;8.65;6.30;;;18.70;99.90;;;;;;5113600;28;20208;-29
2022/10/24 02:18:19;;;;;;;9.73;6.50;;;18.70;99.90;;;;;;5113904;28;20175;-29
2022/10/24 02:20:54;;;;;;;8.00;6.30;;;18.70;99.90;;;;;;5113437;28;20700;-30
2022/10/24 02:23:26;;;;;;;8.68;6.30;;;18.70;99.90;;;;;;5117022;27;20621;-30
2022/10/24 02:25:57;;;;;;;8.18;6.47;;;18.70;99.90;;;;;;5134017;27;20238;-30
2022/10/24 02:28:29;;;;;;;7.03;5.72;;;18.70;99.90;;;;;;5134306;27;20287;-31
2022/10/24 02:30:59;;;;;;;8.57;6.22;;;18.70;99.90;;;;;;5133839;27;20680;-31
2022/10/24 02:33:29;;;;;;;8.02;6.22;;;18.70;99.90;;;;;;5133815;27;20189;-31
2022/10/24 02:35:57;;;;;;;8.10;6.07;;;18.70;99.90;;;;;;5133676;27;20259;-33
2022/10/24 02:38:28;;;;;;;9.80;6.05;;;18.70;99.90;;;;;;5133667;27;20178;-33
2022/10/24 02:40:58;;;;;;;7.65;6.10;;;18.70;99.90;;;;;;5134063;27;20183;-30
2022/10/24 02:43:27;;;;;;;8.30;5.95;;;18.70;99.90;;;;;;5133916;27;20225;-30
2022/10/24 02:45:57;;;;;;;7.22;5.63;;;18.70;99.90;;;;;;5133353;27;20635;-31
2022/10/24 02:48:30;;;;;;;7.43;5.78;;;18.70;99.90;;;;;;5133988;27;20177;-33
2022/10/24 02:50:57;;;;;;;7.38;6.07;;;18.70;99.90;;;;;;5133597;27;20611;-32
2022/10/24 02:53:26;;;;;;;7.60;5.97;;;18.70;99.90;;;;;;5133836;27;20243;-31
2022/10/24 02:55:53;;;;;;;8.38;6.22;;;18.70;99.90;;;;;;5125287;27;20198;-32
2022/10/24 02:58:20;;;;;;;8.32;6.07;;;18.70;99.90;;;;;;5113286;28;20183;-29
2022/10/24 03:00:47;;;;;;;8.50;6.15;;;18.70;1.00;;;;;;5112930;28;20248;-30
2022/10/24 03:03:14;;;;;;;7.38;5.93;;;18.70;99.90;;;;;;5113159;28;20195;-32
2022/10/24 03:05:42;;;;;;;6.40;5.63;;;18.70;99.90;;;;;;5113191;28;20318;-30
2022/10/24 03:08:09;;;;;;;10.05;5.85;;;18.60;99.90;;;;;;5113425;28;20590;-30
2022/10/24 03:10:36;;;;;;;7.40;5.55;;;18.70;99.90;;;;;;5112953;28;20586;-29
2022/10/24 03:13:03;;;;;;;7.30;5.97;;;18.60;99.90;;;;;;5113044;28;20187;-33
2022/10/24 03:15:31;;;;;;;9.95;6.20;;;18.60;99.90;;;;;;5113808;28;20241;-31
2022/10/24 03:17:58;;;;;;;8.60;5.78;;;18.60;99.90;;;;;;5102961;28;20202;-30
2022/10/24 03:20:25;;;;;;;8.20;6.00;;;18.60;1.00;;;;;;5114510;28;20696;-31
2022/10/24 03:22:53;;;;;;;7.10;5.60;;;18.60;1.00;;;;;;5132593;28;20235;-30
2022/10/24 03:25:20;;;;;;;10.05;5.63;;;18.60;1.00;;;;;;5131780;27;20186;-32
2022/10/24 03:27:47;;;;;;;7.45;6.10;;;18.60;1.00;;;;;;5128326;27;20240;-31
2022/10/24 03:30:14;;;;;;;9.48;6.00;;;18.60;1.00;;;;;;5112846;28;20222;-30
2022/10/24 03:32:41;;;;;;;6.93;5.63;;;18.60;1.00;;;;;;5113648;28;20175;-33
2022/10/24 03:35:09;;;;;;;8.13;6.10;;;18.60;1.00;;;;;;5117640;28;20174;-30
2022/10/24 03:37:36;;;;;;;7.32;5.72;;;18.60;1.00;;;;;;5120239;27;20203;-32
2022/10/24 03:40:05;;;;;;;8.15;6.32;;;18.60;1.00;;;;;;5112822;28;20255;-30
2022/10/24 03:42:32;;;;;;;7.32;5.78;;;18.60;1.00;;;;;;5112409;28;20244;-29
2022/10/24 03:44:59;;;;;;;7.57;6.10;;;18.60;1.00;;;;;;5112805;28;20269;-33
2022/10/24 03:47:26;;;;;;;8.30;6.40;;;18.60;1.00;;;;;;5112394;28;20710;-31
2022/10/24 03:49:53;;;;;;;9.48;6.03;;;18.60;1.00;;;;;;5112459;28;20580;-31
2022/10/24 03:52:20;;;;;;;8.63;6.30;;;18.60;1.00;;;;;;5119666;28;20187;-32
2022/10/24 03:54:47;;;;;;;8.05;6.05;;;18.60;1.00;;;;;;5132892;27;20178;-30
2022/10/24 03:57:15;;;;;;;7.63;6.25;;;18.60;1.00;;;;;;5133119;27;20269;-31
2022/10/24 03:59:42;;;;;;;9.77;6.43;;;18.60;1.00;;;;;;5120339;28;20183;-31
2022/10/24 04:02:09;;;;;;;10.02;6.45;;;18.60;1.00;;;;;;5112810;28;20186;-32
2022/10/24 04:04:36;;;;;;;7.40;6.53;;;18.50;1.00;;;;;;5112322;28;20192;-29
2022/10/24 04:07:04;;;;;;;8.00;6.47;;;18.60;1.00;;;;;;5112265;28;20624;-30
2022/10/24 04:09:31;;;;;;;8.20;6.10;;;18.60;1.00;;;;;;5112583;28;20213;-32
2022/10/24 04:11:58;;;;;;;7.80;6.13;;;18.60;1.00;;;;;;5112081;28;20631;-34
2022/10/24 04:14:27;;;;;;;7.53;6.15;;;18.60;1.00;;;;;;5112479;28;20236;-31
2022/10/24 04:16:54;;;;;;;6.53;5.60;;;18.60;1.00;;;;;;5112079;28;20258;-32
2022/10/24 04:19:21;;;;;;;8.20;6.65;;;18.60;1.00;;;;;;5111992;28;20179;-32
2022/10/24 04:21:48;;;;;;;8.80;6.22;;;18.60;1.00;;;;;;5112447;28;20274;-30
2022/10/24 04:24:16;;;;;;;7.90;6.07;;;18.60;1.00;;;;;;5112383;28;20198;-30
2022/10/24 04:26:43;;;;;;;7.47;5.90;;;18.60;1.00;;;;;;5112331;28;20691;-31
2022/10/24 04:29:10;;;;;;;10.18;6.30;;;18.50;1.00;;;;;;5112274;28;20635;-31
2022/10/24 04:31:39;;;;;;;7.70;5.95;;;18.50;1.00;;;;;;5114043;28;20183;-41
2022/10/24 04:34:06;;;;;;;7.05;6.20;;;18.50;1.00;;;;;;5115860;28;20187;-38
2022/10/24 04:36:34;;;;;;;8.13;5.80;;;18.60;1.00;;;;;;5115517;28;20563;-34
2022/10/24 04:39:01;;;;;;;9.20;5.78;;;18.50;1.00;;;;;;5116058;28;20195;-35
2022/10/24 04:41:28;;;;;;;9.10;6.35;;;18.50;1.00;;;;;;5115812;28;20248;-40
2022/10/24 04:43:55;;;;;;;6.63;5.80;;;18.50;1.00;;;;;;5115726;28;20240;-41
2022/10/24 04:46:22;;;;;;;9.15;6.10;;;18.50;1.00;;;;;;5115754;28;20259;-37
2022/10/24 04:48:52;;;;;;;7.00;5.80;;;18.50;1.00;;;;;;5115497;28;20530;-36
2022/10/24 04:51:19;;;;;;;8.55;6.50;;;18.50;1.00;;;;;;5126406;27;20186;-31
2022/10/24 04:53:46;;;;;;;8.52;6.32;;;18.50;1.00;;;;;;5135938;27;20591;-30
2022/10/24 04:56:13;;;;;;;7.07;5.57;;;18.50;1.00;;;;;;5135833;27;20638;-31
2022/10/24 04:58:40;;;;;;;6.93;5.72;;;18.50;1.00;;;;;;5135731;27;20206;-33
2022/10/24 05:01:07;;;;;;;7.70;6.30;;;18.50;1.00;;;;;;5135810;27;20185;-32
2022/10/24 05:03:34;;;;;;;9.02;6.35;;;18.50;1.00;;;;;;5125195;27;20197;-31
2022/10/24 05:06:02;;;;;;;11.63;6.03;;;18.50;1.00;;;;;;5134885;27;20178;-33
2022/10/24 05:08:30;;;;;;;7.43;5.93;;;18.50;1.00;;;;;;5130917;27;20240;-35
2022/10/24 05:10:56;;;;;;;7.78;6.00;;;18.50;1.00;;;;;;5115747;27;20229;-34
2022/10/24 05:13:23;;;;;;;9.35;6.40;;;18.50;1.00;;;;;;5114690;28;20239;-30
2022/10/24 05:15:50;;;;;;;8.10;6.15;;;18.50;1.00;;;;;;5114613;28;20642;-32
2022/10/24 05:18:17;;;;;;;8.20;6.20;;;18.50;1.00;;;;;;5114772;28;20222;-32
2022/10/24 05:20:44;;;;;;;8.07;6.32;;;18.50;1.00;;;;;;5115052;28;20243;-31
2022/10/24 05:23:13;;;;;;;8.35;6.15;;;18.50;1.00;;;;;;5114512;28;20238;-31
2022/10/24 05:25:40;;;;;;;7.93;5.80;;;18.50;1.00;;;;;;5114768;28;20194;-31
2022/10/24 05:28:07;;;;;;;9.98;6.60;;;18.50;1.00;;;;;;5114459;27;20194;-31
2022/10/24 05:30:34;;;;;;;9.23;6.38;;;18.50;1.00;;;;;;5114300;28;20187;-31
2022/10/24 05:33:01;;;;;;;7.32;6.10;;;18.50;1.00;;;;;;5114693;28;20585;-33
2022/10/24 05:35:28;;;;;;;8.65;6.55;;;18.50;1.00;;;;;;5114265;28;20578;-32
2022/10/24 05:37:55;;;;;;;8.43;6.53;;;18.50;1.00;;;;;;5114422;28;20207;-34
2022/10/24 05:40:23;;;;;;;9.70;6.22;;;18.50;1.00;;;;;;5114482;28;20187;-30
2022/10/24 05:42:51;;;;;;;7.82;5.80;;;18.50;1.00;;;;;;5114308;28;20579;-31
2022/10/24 05:45:18;;;;;;;7.85;6.07;;;18.50;1.00;;;;;;5114290;28;20192;-32
2022/10/24 05:47:45;;;;;;;8.27;6.30;;;18.50;1.00;;;;;;5114592;28;20272;-32
2022/10/24 05:50:13;;;;;;;8.93;6.40;;;18.50;1.00;;;;;;5114002;28;20191;-30
2022/10/24 05:52:41;;;;;;;8.65;6.80;;;18.50;1.00;;;;;;5113927;28;20195;-31
2022/10/24 05:55:10;;;;;;;7.60;6.00;;;18.50;1.00;;;;;;5113834;28;20224;-31
2022/10/24 05:57:39;;;;;;;8.93;6.03;;;18.50;1.00;;;;;;5113661;28;20602;-32
2022/10/24 06:00:07;;;;;;;6.97;5.97;;;18.50;1.00;;;;;;5113789;28;20669;-31
2022/10/24 06:02:34;;;;;;;8.73;6.07;;;18.50;1.00;;;;;;5113718;28;20190;-31
2022/10/24 06:05:01;;;;;;;7.10;5.95;;;18.40;1.00;;;;;;5114056;28;20183;-31
2022/10/24 06:07:29;;;;;;;7.80;5.97;;;18.50;1.00;;;;;;5113872;28;20283;-30
2022/10/24 06:09:56;;;;;;;7.75;5.78;;;18.40;1.00;;;;;;5113925;28;20594;-32
2022/10/24 06:12:23;;;;;;;7.65;6.10;;;18.50;1.00;;;;;;5113858;28;20248;-31
2022/10/24 06:14:55;;;;;;;10.40;6.18;;;18.50;1.00;;;;;;5113786;28;20591;-32
2022/10/24 06:17:22;;;;;;;8.68;5.75;;;18.50;1.00;;;;;;5113769;28;20595;-33
2022/10/24 06:19:49;;;;;;;8.57;5.97;;;18.40;1.00;;;;;;5113636;28;20187;-31
2022/10/24 06:22:17;;;;;;;7.35;6.35;;;18.50;1.00;;;;;;5113498;28;20216;-31
2022/10/24 06:24:44;;;;;;;8.05;6.25;;;18.50;1.00;;;;;;5113665;28;20236;-30
2022/10/24 06:27:11;;;;;;;8.25;6.60;;;18.50;1.00;;;;;;5113636;28;20307;-30
2022/10/24 06:29:38;;;;;;;8.13;6.90;;;18.50;1.00;;;;;;5113537;28;20251;-31
2022/10/24 06:32:07;;;;;;;9.10;6.10;;;18.50;1.00;;;;;;5113486;28;20191;-31
2022/10/24 06:34:34;;;;;;;8.07;6.55;;;18.50;1.00;;;;;;5113134;28;20187;-30
2022/10/24 06:37:02;;;;;;;8.00;5.93;;;18.50;1.00;;;;;;5113410;28;20191;-31
2022/10/24 06:39:30;;;;;;;7.75;6.07;;;18.50;1.00;;;;;;5113029;28;20188;-30
2022/10/24 06:41:57;;;;;;;7.65;6.15;;;18.40;1.00;;;;;;5113356;28;20187;-31
2022/10/24 06:44:24;;;;;;;6.88;5.90;;;18.40;1.00;;;;;;5113201;28;20277;-31
2022/10/24 06:46:51;;;;;;;8.88;6.30;;;18.40;1.00;;;;;;5113173;28;20248;-30
2022/10/24 06:49:19;;;;;;;7.75;6.25;;;18.50;1.00;;;;;;5112864;28;20631;-31
2022/10/24 06:51:46;;;;;;;8.82;6.35;;;18.40;1.00;;;;;;5112761;28;20191;-32
2022/10/24 06:54:13;;;;;;;8.15;6.20;;;18.40;1.00;;;;;;5112323;28;20186;-31
2022/10/24 06:56:40;;;;;;;8.73;6.07;;;18.40;1.00;;;;;;5113065;28;20251;-31
2022/10/24 06:59:09;;;;;;;8.27;6.22;;;18.40;1.00;;;;;;5112928;28;20236;-32
2022/10/24 07:01:36;;;;;;;7.32;6.05;;;18.40;1.00;;;;;;5112689;28;20190;-32
2022/10/24 07:04:04;;;;;;;6.97;5.93;;;18.40;1.00;;;;;;5112680;28;20190;-32
2022/10/24 07:06:32;;;;;;;9.00;6.78;;;18.40;1.00;;;;;;5112675;28;20215;-31
2022/10/24 07:09:01;;;;;;;8.88;6.50;;;18.40;1.00;;;;;;5112596;28;20631;-30
2022/10/24 07:11:28;;;;;;;8.43;6.55;;;18.40;1.00;;;;;;5112866;28;20277;-30
2022/10/24 07:13:55;;;;;;;6.97;6.05;;;18.50;1.00;;;;;;5113140;28;20183;-32
2022/10/24 07:16:22;;;;;;;7.57;6.30;;;18.40;1.00;;;;;;5113036;28;20183;-31
2022/10/24 07:18:49;;;;;;;7.32;6.22;;;18.40;1.00;;;;;;5112435;28;20219;-32
2022/10/24 07:21:20;;;;;;;6.85;5.88;;;18.40;1.00;;;;;;5112820;28;20223;-30
2022/10/24 07:23:50;;;;;;;8.90;6.43;;;18.50;1.00;;;;;;5112856;28;20179;-33
2022/10/24 07:26:18;;;;;;;9.23;6.53;;;18.50;1.00;;;;;;5112833;28;20254;-30
2022/10/24 07:28:46;;;;;;;8.73;7.25;;;18.40;1.00;;;;;;5112804;28;20194;-32
2022/10/24 07:31:14;;;;;;;9.88;7.45;;;18.40;1.00;;;;;;5112626;28;20195;-30
2022/10/24 07:33:41;;;;;;;9.05;7.00;;;18.40;1.00;;;;;;5112437;28;20597;-30
2022/10/24 07:36:09;;;;;;;10.32;7.30;;;18.50;1.00;;;;;;5112378;28;20187;-34
2022/10/24 07:38:36;;;;;;;8.18;7.00;;;18.50;1.00;;;;;;5112239;28;20225;-32
2022/10/24 07:41:06;;;;;;;9.23;7.72;;;18.50;1.00;;;;;;5112323;28;20243;-30
2022/10/24 07:43:33;;;;;;;8.68;7.30;;;18.50;1.00;;;;;;5112255;28;20587;-32
2022/10/24 07:46:00;;;;;;;9.80;7.40;;;18.50;1.00;;;;;;5112276;28;20191;-32
2022/10/24 07:48:27;;;;;;;8.45;7.28;;;18.50;1.00;;;;;;5112440;28;20191;-30
2022/10/24 07:50:54;;;;;;;9.70;7.35;;;18.50;1.00;;;;;;5112482;28;20632;-33
2022/10/24 07:53:21;;;;;;;9.38;7.30;;;18.50;1.00;;;;;;5112506;28;20586;-34
2022/10/24 07:55:48;;;;;;;9.30;8.02;;;18.50;1.00;;;;;;5112510;28;20236;-34
2022/10/24 07:58:16;;;;;;;7.93;7.13;;;18.50;1.00;;;;;;5112379;28;20211;-30
2022/10/24 08:00:43;;;;;;;9.52;7.22;;;18.50;1.00;;;;;;5112140;28;20187;-32
2022/10/24 08:03:10;;;;;;;8.80;7.25;;;18.50;1.00;;;;;;5112402;28;20187;-31
2022/10/24 08:05:39;;;;;;;8.45;7.18;;;18.50;1.00;;;;;;5112452;28;20191;-32
2022/10/24 08:08:06;;;;;;;8.27;7.40;;;18.50;1.00;;;;;;5116423;28;20218;-30
2022/10/24 08:10:33;;;;;;;8.75;6.93;;;18.50;1.00;;;;;;5116230;28;20186;-32
2022/10/24 08:13:00;;;;;;;8.93;6.72;;;18.50;1.00;;;;;;5116305;28;20248;-30
2022/10/24 08:15:28;;;;;;;9.05;7.60;;;18.50;1.00;;;;;;5116096;28;20545;-33
2022/10/24 08:17:56;;;;;;;9.85;8.02;;;18.50;1.00;;;;;;5116312;28;20202;-33
2022/10/24 08:20:25;;;;;;;9.02;8.05;;;18.50;1.00;;;;;;5115989;28;20186;-30
2022/10/24 08:22:52;;;;;;;11.20;7.75;;;18.50;1.00;;;;;;5115759;28;20198;-32
2022/10/24 08:25:19;;;;;;;9.13;7.05;;;18.50;1.00;;;;;;5115664;28;20538;-34
2022/10/24 08:27:46;;;;;;;9.27;7.63;;;18.50;1.00;;;;;;5115931;28;20194;-31
2022/10/24 08:30:16;;;;;;;9.05;7.90;;;18.50;1.00;;;;;;5115880;28;20274;-30
2022/10/24 08:32:44;;;;;;;9.75;7.53;;;18.60;1.00;;;;;;5115500;28;20223;-31
2022/10/24 08:35:15;;;;;;;8.82;7.45;;;18.60;1.00;;;;;;5115756;28;20236;-33
2022/10/24 08:37:42;;;;;;;7.97;7.10;;;18.60;1.00;;;;;;5115410;28;20175;-31
2022/10/24 08:40:14;;;;;;;8.15;7.22;;;18.60;1.00;;;;;;5115370;28;20186;-29
2022/10/24 08:42:41;;;;;;;10.45;7.50;;;18.60;1.00;;;;;;5115662;28;20178;-32
2022/10/24 08:45:15;;;;;;;8.35;7.40;;;18.60;1.00;;;;;;5115239;28;20244;-31
2022/10/24 08:47:49;;;;;;;8.88;7.22;;;18.60;1.00;;;;;;5115261;28;20631;-30
2022/10/24 08:50:23;;;;;;;7.63;6.60;;;18.60;1.00;;;;;;5115321;28;20569;-32
2022/10/24 08:52:56;;;;;;;7.72;6.93;;;18.70;1.00;;;;;;5115176;28;20665;-29
2022/10/24 08:55:25;;;;;;;7.50;6.38;;;18.70;1.00;;;;;;5115162;28;20228;-32
2022/10/24 08:57:56;;;;;;;8.05;6.78;;;18.70;1.00;;;;;;5115241;28;20191;-29
2022/10/24 09:00:28;;;;;;;7.32;6.32;;;18.70;1.00;;;;;;5115137;28;20175;-31
2022/10/24 09:03:01;;;;;;;8.20;6.72;;;18.70;1.00;;;;;;5115300;28;20175;-31
2022/10/24 09:05:31;;;;;;;9.90;8.52;;;18.80;1.00;;;;;;5115299;28;20175;-31
2022/10/24 09:08:03;;;;;;;9.85;8.55;;;18.90;1.00;;;;;;5114907;28;20665;-31
2022/10/24 09:10:41;;;;;;;12.82;9.75;;;18.90;1.00;;;;;;5115437;28;20295;-34
2022/10/24 09:13:13;;;;;;;12.68;10.27;;;19.00;1.00;;;;;;5115098;28;20234;-32
2022/10/24 09:15:42;;;;;;;14.85;10.63;;;19.00;1.00;;;;;;5114828;28;20524;-31
2022/10/24 09:18:18;;;;;;;14.20;9.48;;;19.10;1.00;;;;;;5114413;28;20210;-33
2022/10/24 09:20:45;;;;;;;13.63;9.05;;;19.10;1.00;;;;;;5114997;28;20236;-33
2022/10/24 09:23:14;;;;;;;15.98;9.70;;;19.10;1.00;;;;;;5114535;28;20191;-31
2022/10/24 09:25:44;;;;;;;12.00;8.55;;;19.20;1.00;;;;;;5114822;28;20202;-34
2022/10/24 09:28:12;;;;;;;10.77;8.32;;;19.20;1.00;;;;;;5114834;28;20175;-33
2022/10/24 09:30:40;;;;;;;11.13;8.25;;;19.20;1.00;;;;;;5114738;28;20194;-33
2022/10/24 09:33:22;;;;;;;12.82;8.40;;;19.20;1.00;;;;;;5114320;28;20577;-33
2022/10/24 09:35:50;;;;;;;11.48;8.02;;;19.30;99.90;;;;;;5114682;28;20248;-32
2022/10/24 09:38:33;;;;;;;9.55;7.93;;;19.20;99.90;;;;;;5114176;28;20219;-31
2022/10/24 09:41:03;;;;;;;10.13;7.85;;;19.30;99.90;;;;;;5114556;28;20266;-31
2022/10/24 09:43:38;;;;;;;10.70;7.32;;;19.40;99.90;;;;;;5114166;28;20234;-31
2022/10/24 09:46:08;;;;;;;12.35;7.43;;;19.40;99.90;;;;;;5114680;27;20175;-32
2022/10/24 09:48:47;;;;;;;10.73;7.20;;;19.40;99.90;;;;;;5114602;28;20187;-32
2022/10/24 09:51:32;;;;;;;10.13;7.47;;;19.50;99.90;;;;;;5114366;28;20171;-32
2022/10/24 09:54:25;;;;;;;10.25;7.47;;;19.50;99.90;;;;;;5113982;28;20179;-33
2022/10/24 09:56:56;;;;;;;10.95;7.15;;;19.50;99.90;;;;;;5113938;28;20180;-31
2022/10/24 09:59:40;;;;;;;10.57;6.97;;;19.50;99.90;;;;;;5114173;28;20205;-32
2022/10/24 10:02:33;;;;;;;9.07;7.03;;;19.50;99.90;;;;;;5114384;28;20179;-32
2022/10/24 10:05:18;;;;;;;9.07;6.68;;;19.50;99.90;;;;;;5113067;28;20337;-34
2022/10/24 10:07:47;;;;;;;12.50;7.00;;;19.60;99.90;;;;;;5114056;28;20218;-32
2022/10/24 10:10:30;;;;;;;8.63;6.45;;;19.50;99.90;;;;;;5113676;28;20186;-32
2022/10/24 10:13:03;;;;;;;9.10;6.57;;;19.60;99.90;;;;;;5113837;28;20224;-31
2022/10/24 10:15:34;;;;;;;8.02;6.88;;;19.50;99.90;;;;;;5113613;28;20179;-31
2022/10/24 10:18:04;;;;;;;11.30;6.75;;;19.50;99.90;;;;;;5113828;28;20262;-33
2022/10/24 10:20:38;;;;;;;9.30;6.28;;;19.50;99.90;;;;;;5113808;28;20176;-33
2022/10/24 10:23:24;;;;;;;9.77;6.10;;;19.50;99.90;;;;;;5113627;28;20559;-33
2022/10/24 10:26:06;;;;;;;8.77;6.10;;;19.50;99.90;;;;;;5113717;28;20277;-32
2022/10/24 10:28:35;;;;;;;9.75;6.68;;;19.50;99.90;;;;;;5112644;28;20179;-33
2022/10/24 10:31:03;;;;;;;8.63;6.53;;;19.50;99.90;;;;;;5113179;28;20199;-31
2022/10/24 10:33:36;;;;;;;9.07;6.25;;;19.50;99.90;;;;;;5113455;28;20199;-32
2022/10/24 10:36:13;;;;;;;9.48;5.88;;;19.50;99.90;;;;;;5113222;28;20270;-32
2022/10/24 10:38:58;;;;;;;7.30;5.65;;;19.50;99.90;;;;;;5113590;28;20204;-32
2022/10/24 10:41:45;;;;;;;8.23;5.78;;;19.40;99.90;;;;;;5113446;28;20576;-33
2022/10/24 10:44:34;;;;;;;9.95;5.82;;;19.50;99.90;;;;;;5113302;28;20252;-33
2022/10/24 10:47:11;;;;;;;8.27;6.00;;;19.40;99.90;;;;;;5113053;28;20232;-32
2022/10/24 10:49:40;;;;;;;8.05;5.88;;;19.40;99.90;;;;;;5113221;28;20187;-32
2022/10/24 10:52:13;;;;;;;11.35;5.70;;;19.40;99.90;;;;;;5113115;28;20639;-33
2022/10/24 10:55:05;;;;;;;9.10;6.10;;;19.30;99.90;;;;;;5113095;28;20172;-32
2022/10/24 10:57:40;;;;;;;7.03;5.65;;;19.30;1.00;;;;;;5113118;28;20251;-32
2022/10/24 11:00:11;;;;;;;9.25;5.82;;;19.40;1.00;;;;;;5112946;28;20581;-33
2022/10/24 11:02:54;;;;;;;9.00;5.13;;;19.30;1.00;;;;;;5113339;28;20179;-32
2022/10/24 11:05:35;;;;;;;9.00;5.60;;;19.30;1.00;;;;;;5113005;28;20232;-32
2022/10/24 11:08:15;;;;;;;7.07;5.28;;;19.30;1.00;;;;;;5112557;28;20271;-32
2022/10/24 11:10:48;;;;;;;8.32;5.45;;;19.30;1.00;;;;;;5113261;28;20182;-31
2022/10/24 11:13:19;;;;;;;6.93;5.35;;;19.30;1.00;;;;;;5112742;28;20624;-33
2022/10/24 11:15:50;;;;;;;9.98;5.85;;;19.40;1.00;;;;;;5112887;28;20182;-34
2022/10/24 11:18:25;;;;;;;9.18;5.30;;;19.30;1.00;;;;;;5112974;28;20240;-31
2022/10/24 11:20:56;;;;;;;8.50;5.10;;;19.30;1.00;;;;;;5112836;28;20178;-33
2022/10/24 11:23:30;;;;;;;10.05;5.55;;;19.30;1.00;;;;;;5112550;28;20174;-33
2022/10/24 11:26:02;;;;;;;8.82;5.22;;;19.30;1.00;;;;;;5112847;28;20236;-32
2022/10/24 11:28:34;;;;;;;9.70;5.00;;;19.30;1.00;;;;;;5112824;28;20182;-31
2022/10/24 11:31:05;;;;;;;7.95;4.70;;;19.30;1.00;;;;;;5112451;28;20684;-31
2022/10/24 11:33:40;;;;;;;7.95;5.43;;;19.30;1.00;;;;;;5112707;28;20224;-32
2022/10/24 11:36:13;;;;;;;6.97;4.70;;;19.30;1.00;;;;;;5112469;28;20223;-34
2022/10/24 11:38:48;;;;;;;9.50;5.15;;;19.30;1.00;;;;;;5112511;28;20623;-33
2022/10/24 11:41:45;;;;;;;7.22;4.95;;;19.30;1.00;;;;;;5115608;28;20572;-34
2022/10/24 11:44:23;;;;;;;7.57;4.65;;;19.30;1.00;;;;;;5117022;28;20229;-32
2022/10/24 11:46:59;;;;;;;9.85;4.88;;;19.20;1.00;;;;;;5116797;28;20191;-32
2022/10/24 11:49:32;;;;;;;8.30;5.28;;;19.20;1.00;;;;;;5116803;28;20263;-32
2022/10/24 11:52:04;;;;;;;6.35;4.60;;;19.20;1.00;;;;;;5116683;28;20236;-32
2022/10/24 11:54:38;;;;;;;7.85;4.85;;;19.20;1.00;;;;;;5116302;28;20688;-31
2022/10/24 11:57:12;;;;;;;7.25;4.93;;;19.20;1.00;;;;;;5116623;28;20243;-32
2022/10/24 11:59:39;;;;;;;8.30;5.13;;;19.20;1.00;;;;;;5116449;28;20234;-32
2022/10/24 12:02:43;;;;;;;8.30;5.25;;;19.20;1.00;;;;;;5116486;27;20244;-32
2022/10/24 12:05:45;;;;;;;11.43;5.45;;;19.20;1.00;;;;;;5116114;28;20178;-32
2022/10/24 12:08:39;;;;;;;8.48;5.13;;;19.20;1.00;;;;;;5102902;28;20214;-33
2022/10/24 12:11:24;;;;;;;7.47;4.90;;;19.20;1.00;;;;;;5116389;28;20171;-30
2022/10/24 12:14:17;;;;;;;9.23;4.95;;;19.10;1.00;;;;;;5115936;28;20227;-31
2022/10/24 12:16:57;;;;;;;10.65;5.03;;;19.10;1.00;;;;;;5115301;28;20590;-35
2022/10/24 12:19:25;;;;;;;8.73;4.57;;;19.10;1.00;;;;;;5116076;28;20198;-35
2022/10/24 12:21:54;;;;;;;11.20;4.72;;;19.10;1.00;;;;;;5116096;28;20228;-33
2022/10/24 12:24:29;;;;;;;8.00;4.57;;;19.10;1.00;;;;;;5116030;28;20187;-32
2022/10/24 12:27:01;;;;;;;11.15;5.35;;;19.10;1.00;;;;;;5116071;28;20178;-33
2022/10/24 12:29:30;;;;;;;8.13;4.60;;;19.10;1.00;;;;;;5116029;28;20228;-32
2022/10/24 12:31:58;;;;;;;12.38;4.88;;;19.10;1.00;;;;;;5115525;28;20631;-33
2022/10/24 12:34:44;;;;;;;9.45;4.63;;;19.10;1.00;;;;;;5115489;28;20645;-32
2022/10/24 12:37:28;;;;;;;10.10;5.07;;;19.10;1.00;;;;;;5115764;28;20243;-33
2022/10/24 12:39:55;;;;;;;10.02;4.82;;;19.10;1.00;;;;;;5115284;28;20592;-31
2022/10/24 12:42:55;;;;;;;10.60;5.10;;;19.10;1.00;;;;;;5115627;28;20243;-31
2022/10/24 12:45:29;;;;;;;9.35;5.07;;;19.10;1.00;;;;;;5115604;28;20191;-32
2022/10/24 12:48:31;;;;;;;8.50;4.53;;;19.10;1.00;;;;;;5115311;28;20175;-32
2022/10/24 12:51:29;;;;;;;10.50;5.20;;;19.00;1.00;;;;;;5115589;28;20182;-31
2022/10/24 12:54:15;;;;;;;8.50;4.93;;;19.10;1.00;;;;;;5115046;28;20182;-33
2022/10/24 12:57:30;;;;;;;6.85;4.75;;;19.00;1.00;;;;;;5115453;28;20189;-31
2022/10/24 12:59:58;;;;;;;9.18;4.90;;;19.00;1.00;;;;;;5072273;28;20220;-32
2022/10/24 13:02:47;;;;;;;6.72;4.72;;;19.00;1.00;;;;;;5072265;28;20196;-32
2022/10/24 13:05:47;;;;;;;15.45;5.43;;;19.00;1.00;;;;;;5097676;28;20194;-31
2022/10/24 13:08:29;;;;;;;9.82;5.10;;;19.00;1.00;;;;;;5115246;28;20236;-32
2022/10/24 13:11:09;;;;;;;9.20;4.95;;;19.00;1.00;;;;;;5115299;28;20175;-32
2022/10/24 13:13:54;;;;;;;9.25;5.47;;;19.00;1.00;;;;;;5115173;28;20232;-33
2022/10/24 13:16:33;;;;;;;9.88;5.30;;;19.00;1.00;;;;;;5115411;28;20206;-33